sensor_id;sensor_type;location;lat;lon;timestamp;pressure;altitude;pressure_sealevel;temperature;humidity
59588;BME280;45412;54.472;18.464;2022-07-22T00:00:12;99932.90;;;20.96;66.32
59588;BME280;45412;54.472;18.464;2022-07-22T00:03:04;99936.04;;;20.91;66.72
59588;BME280;45412;54.472;18.464;2022-07-22T00:05:53;99931.23;;;20.86;66.88
59588;BME280;45412;54.472;18.464;2022-07-22T00:08:41;99937.39;;;20.82;67.10
59588;BME280;45412;54.472;18.464;2022-07-22T00:11:29;99932.13;;;20.76;67.59
59588;BME280;45412;54.472;18.464;2022-07-22T00:14:17;99939.77;;;20.72;67.83
59588;BME280;45412;54.472;18.464;2022-07-22T00:17:05;99944.77;;;20.68;68.10
59588;BME280;45412;54.472;18.464;2022-07-22T00:19:53;99945.87;;;20.64;68.47
59588;BME280;45412;54.472;18.464;2022-07-22T00:22:41;99946.64;;;20.59;68.78
59588;BME280;45412;54.472;18.464;2022-07-22T00:25:29;99948.03;;;20.55;68.98
59588;BME280;45412;54.472;18.464;2022-07-22T00:28:17;99946.77;;;20.50;69.42
59588;BME280;45412;54.472;18.464;2022-07-22T00:31:06;99947.14;;;20.47;69.60
59588;BME280;45412;54.472;18.464;2022-07-22T00:33:54;99955.47;;;20.44;69.94
59588;BME280;45412;54.472;18.464;2022-07-22T00:36:42;99952.15;;;20.41;70.29
59588;BME280;45412;54.472;18.464;2022-07-22T00:39:30;99950.69;;;20.38;70.46
59588;BME280;45412;54.472;18.464;2022-07-22T00:42:18;99949.59;;;20.34;70.90
59588;BME280;45412;54.472;18.464;2022-07-22T00:45:10;99948.92;;;20.30;71.36
59588;BME280;45412;54.472;18.464;2022-07-22T00:48:02;99950.36;;;20.25;71.73
59588;BME280;45412;54.472;18.464;2022-07-22T00:50:51;99947.55;;;20.20;72.18
59588;BME280;45412;54.472;18.464;2022-07-22T00:53:40;99946.39;;;20.18;72.30
59588;BME280;45412;54.472;18.464;2022-07-22T00:56:28;99941.55;;;20.14;72.73
59588;BME280;45412;54.472;18.464;2022-07-22T00:59:17;99941.55;;;20.11;72.79
59588;BME280;45412;54.472;18.464;2022-07-22T01:02:05;99940.16;;;20.10;72.73
59588;BME280;45412;54.472;18.464;2022-07-22T01:04:53;99933.73;;;20.07;72.98
59588;BME280;45412;54.472;18.464;2022-07-22T01:07:41;99927.47;;;20.05;72.95
59588;BME280;45412;54.472;18.464;2022-07-22T01:10:30;99928.10;;;20.03;72.82
59588;BME280;45412;54.472;18.464;2022-07-22T01:13:19;99930.27;;;20.02;73.01
59588;BME280;45412;54.472;18.464;2022-07-22T01:16:09;99923.69;;;20.00;73.01
59588;BME280;45412;54.472;18.464;2022-07-22T01:18:58;99924.14;;;19.97;73.12
59588;BME280;45412;54.472;18.464;2022-07-22T01:21:48;99917.72;;;19.95;73.26
59588;BME280;45412;54.472;18.464;2022-07-22T01:24:36;99916.27;;;19.92;73.34
59588;BME280;45412;54.472;18.464;2022-07-22T01:27:25;99912.48;;;19.89;73.58
59588;BME280;45412;54.472;18.464;2022-07-22T01:30:13;99914.33;;;19.86;73.76
59588;BME280;45412;54.472;18.464;2022-07-22T01:33:02;99916.69;;;19.83;73.85
59588;BME280;45412;54.472;18.464;2022-07-22T01:35:51;99916.60;;;19.79;74.12
59588;BME280;45412;54.472;18.464;2022-07-22T01:38:40;99915.83;;;19.75;74.22
59588;BME280;45412;54.472;18.464;2022-07-22T01:41:30;99917.86;;;19.72;74.56
59588;BME280;45412;54.472;18.464;2022-07-22T01:44:19;99914.13;;;19.70;74.55
59588;BME280;45412;54.472;18.464;2022-07-22T01:47:08;99909.08;;;19.66;74.71
59588;BME280;45412;54.472;18.464;2022-07-22T01:49:56;99913.98;;;19.64;74.98
59588;BME280;45412;54.472;18.464;2022-07-22T01:52:44;99913.08;;;19.61;74.99
59588;BME280;45412;54.472;18.464;2022-07-22T01:55:33;99909.65;;;19.58;75.22
59588;BME280;45412;54.472;18.464;2022-07-22T01:58:21;99903.06;;;19.53;75.50
59588;BME280;45412;54.472;18.464;2022-07-22T02:01:11;99906.93;;;19.49;75.86
59588;BME280;45412;54.472;18.464;2022-07-22T02:03:59;99903.05;;;19.46;76.25
59588;BME280;45412;54.472;18.464;2022-07-22T02:06:48;99901.05;;;19.43;76.15
59588;BME280;45412;54.472;18.464;2022-07-22T02:09:36;99899.71;;;19.40;76.44
59588;BME280;45412;54.472;18.464;2022-07-22T02:12:24;99896.77;;;19.37;76.69
59588;BME280;45412;54.472;18.464;2022-07-22T02:15:12;99903.36;;;19.35;76.81
59588;BME280;45412;54.472;18.464;2022-07-22T02:18:29;99899.33;;;19.31;76.94
59588;BME280;45412;54.472;18.464;2022-07-22T02:21:17;99889.77;;;19.27;77.40
59588;BME280;45412;54.472;18.464;2022-07-22T02:24:05;99898.16;;;19.24;77.54
59588;BME280;45412;54.472;18.464;2022-07-22T02:26:53;99913.19;;;19.20;77.70
59588;BME280;45412;54.472;18.464;2022-07-22T02:29:41;99921.20;;;19.16;77.93
59588;BME280;45412;54.472;18.464;2022-07-22T02:32:29;99928.39;;;19.12;78.17
59588;BME280;45412;54.472;18.464;2022-07-22T02:35:18;99925.35;;;19.07;78.37
59588;BME280;45412;54.472;18.464;2022-07-22T02:38:06;99928.96;;;19.03;78.61
59588;BME280;45412;54.472;18.464;2022-07-22T02:40:55;99929.57;;;19.00;78.72
59588;BME280;45412;54.472;18.464;2022-07-22T02:43:43;99939.48;;;18.96;78.99
59588;BME280;45412;54.472;18.464;2022-07-22T02:46:31;99943.09;;;18.91;79.18
59588;BME280;45412;54.472;18.464;2022-07-22T02:49:28;99940.65;;;18.88;79.29
59588;BME280;45412;54.472;18.464;2022-07-22T02:52:17;99944.67;;;18.85;79.40
59588;BME280;45412;54.472;18.464;2022-07-22T02:55:06;99942.10;;;18.84;79.66
59588;BME280;45412;54.472;18.464;2022-07-22T02:57:56;99936.29;;;18.85;79.91
59588;BME280;45412;54.472;18.464;2022-07-22T03:00:45;99938.59;;;18.85;79.87
59588;BME280;45412;54.472;18.464;2022-07-22T03:03:33;99943.96;;;18.85;79.94
59588;BME280;45412;54.472;18.464;2022-07-22T03:06:22;99946.71;;;18.83;80.14
59588;BME280;45412;54.472;18.464;2022-07-22T03:09:29;99943.98;;;18.82;80.31
59588;BME280;45412;54.472;18.464;2022-07-22T03:12:17;99944.80;;;18.81;80.31
59588;BME280;45412;54.472;18.464;2022-07-22T03:15:06;99948.64;;;18.79;80.35
59588;BME280;45412;54.472;18.464;2022-07-22T03:17:55;99946.96;;;18.79;80.54
59588;BME280;45412;54.472;18.464;2022-07-22T03:20:44;99943.06;;;18.77;80.53
59588;BME280;45412;54.472;18.464;2022-07-22T03:23:32;99944.77;;;18.78;80.53
59588;BME280;45412;54.472;18.464;2022-07-22T03:26:22;99950.23;;;18.81;80.79
59588;BME280;45412;54.472;18.464;2022-07-22T03:29:11;99956.55;;;18.82;80.83
59588;BME280;45412;54.472;18.464;2022-07-22T03:31:59;99966.79;;;18.84;80.91
59588;BME280;45412;54.472;18.464;2022-07-22T03:34:59;99971.41;;;18.86;80.89
59588;BME280;45412;54.472;18.464;2022-07-22T03:37:51;99982.16;;;18.91;81.04
59588;BME280;45412;54.472;18.464;2022-07-22T03:40:41;99984.11;;;18.97;81.02
59588;BME280;45412;54.472;18.464;2022-07-22T03:43:30;99993.03;;;19.08;81.08
59588;BME280;45412;54.472;18.464;2022-07-22T03:46:18;99998.11;;;19.21;80.89
59588;BME280;45412;54.472;18.464;2022-07-22T03:49:06;100003.81;;;19.39;80.56
59588;BME280;45412;54.472;18.464;2022-07-22T03:51:55;100010.02;;;19.55;80.06
59588;BME280;45412;54.472;18.464;2022-07-22T03:54:45;100013.34;;;19.71;79.83
59588;BME280;45412;54.472;18.464;2022-07-22T03:57:34;100014.83;;;19.84;79.22
59588;BME280;45412;54.472;18.464;2022-07-22T04:00:27;100010.62;;;19.98;78.84
59588;BME280;45412;54.472;18.464;2022-07-22T04:03:16;99995.16;;;20.13;78.19
59588;BME280;45412;54.472;18.464;2022-07-22T04:06:07;99988.15;;;20.28;77.60
59588;BME280;45412;54.472;18.464;2022-07-22T04:09:02;99980.97;;;20.43;76.96
59588;BME280;45412;54.472;18.464;2022-07-22T04:11:52;99978.48;;;20.56;76.45
59588;BME280;45412;54.472;18.464;2022-07-22T04:14:42;99971.68;;;20.68;76.05
59588;BME280;45412;54.472;18.464;2022-07-22T04:17:30;99956.05;;;20.78;75.69
59588;BME280;45412;54.472;18.464;2022-07-22T04:20:19;99955.15;;;20.85;75.12
59588;BME280;45412;54.472;18.464;2022-07-22T04:23:28;99955.48;;;20.91;74.86
59588;BME280;45412;54.472;18.464;2022-07-22T04:26:26;99946.71;;;21.00;74.41
59588;BME280;45412;54.472;18.464;2022-07-22T04:29:14;99938.50;;;21.09;74.14
59588;BME280;45412;54.472;18.464;2022-07-22T04:32:02;99935.26;;;21.22;73.61
59588;BME280;45412;54.472;18.464;2022-07-22T04:34:51;99933.89;;;21.39;72.98
59588;BME280;45412;54.472;18.464;2022-07-22T04:37:39;99929.00;;;21.62;72.42
59588;BME280;45412;54.472;18.464;2022-07-22T04:40:27;99926.23;;;21.89;71.81
59588;BME280;45412;54.472;18.464;2022-07-22T04:43:15;99929.52;;;22.11;71.09
59588;BME280;45412;54.472;18.464;2022-07-22T04:46:04;99932.86;;;22.26;70.61
59588;BME280;45412;54.472;18.464;2022-07-22T04:48:53;99926.83;;;22.33;69.75
59588;BME280;45412;54.472;18.464;2022-07-22T04:51:42;99916.02;;;22.37;68.82
59588;BME280;45412;54.472;18.464;2022-07-22T04:54:36;99906.70;;;22.42;68.41
59588;BME280;45412;54.472;18.464;2022-07-22T04:57:24;99912.83;;;22.50;68.41
59588;BME280;45412;54.472;18.464;2022-07-22T05:00:14;99913.35;;;22.55;67.71
59588;BME280;45412;54.472;18.464;2022-07-22T05:03:10;99915.48;;;22.64;67.43
59588;BME280;45412;54.472;18.464;2022-07-22T05:06:00;99923.87;;;22.75;66.96
59588;BME280;45412;54.472;18.464;2022-07-22T05:08:52;99932.16;;;22.84;66.27
59588;BME280;45412;54.472;18.464;2022-07-22T05:11:41;99935.14;;;22.89;66.23
59588;BME280;45412;54.472;18.464;2022-07-22T05:14:30;99927.96;;;22.99;66.32
59588;BME280;45412;54.472;18.464;2022-07-22T05:17:18;99925.69;;;23.15;66.27
59588;BME280;45412;54.472;18.464;2022-07-22T05:20:39;99947.51;;;23.42;65.46
59588;BME280;45412;54.472;18.464;2022-07-22T05:23:27;99946.20;;;23.61;64.07
59588;BME280;45412;54.472;18.464;2022-07-22T05:26:16;99949.50;;;23.70;63.82
59588;BME280;45412;54.472;18.464;2022-07-22T05:29:06;99955.73;;;23.63;63.86
59588;BME280;45412;54.472;18.464;2022-07-22T05:31:55;99957.30;;;23.56;65.50
59588;BME280;45412;54.472;18.464;2022-07-22T05:34:44;99954.19;;;23.41;67.59
59588;BME280;45412;54.472;18.464;2022-07-22T05:37:32;99963.50;;;23.11;69.69
59588;BME280;45412;54.472;18.464;2022-07-22T05:40:20;99968.28;;;22.86;71.70
59588;BME280;45412;54.472;18.464;2022-07-22T05:43:09;99963.23;;;22.70;74.10
59588;BME280;45412;54.472;18.464;2022-07-22T05:45:57;99979.39;;;22.55;75.47
59588;BME280;45412;54.472;18.464;2022-07-22T05:48:45;100006.16;;;22.26;77.63
59588;BME280;45412;54.472;18.464;2022-07-22T05:51:33;100036.61;;;21.84;80.76
59588;BME280;45412;54.472;18.464;2022-07-22T05:54:22;100008.20;;;21.48;80.72
59588;BME280;45412;54.472;18.464;2022-07-22T05:57:10;99952.23;;;21.32;81.55
59588;BME280;45412;54.472;18.464;2022-07-22T05:59:59;99950.52;;;21.23;83.41
59588;BME280;45412;54.472;18.464;2022-07-22T06:02:47;99948.16;;;21.17;84.24
59588;BME280;45412;54.472;18.464;2022-07-22T06:05:37;99947.23;;;21.13;85.23
59588;BME280;45412;54.472;18.464;2022-07-22T06:08:31;99955.44;;;21.09;85.94
59588;BME280;45412;54.472;18.464;2022-07-22T06:11:19;99941.39;;;21.03;86.31
59588;BME280;45412;54.472;18.464;2022-07-22T06:14:07;99938.12;;;21.01;86.39
59588;BME280;45412;54.472;18.464;2022-07-22T06:16:55;99916.50;;;20.99;86.86
59588;BME280;45412;54.472;18.464;2022-07-22T06:19:43;99923.29;;;21.01;86.95
59588;BME280;45412;54.472;18.464;2022-07-22T06:22:31;99938.71;;;20.99;87.10
59588;BME280;45412;54.472;18.464;2022-07-22T06:25:19;99948.08;;;20.99;87.38
59588;BME280;45412;54.472;18.464;2022-07-22T06:28:29;99949.39;;;21.01;88.43
59588;BME280;45412;54.472;18.464;2022-07-22T06:31:17;99953.00;;;21.07;88.88
59588;BME280;45412;54.472;18.464;2022-07-22T06:34:08;99956.48;;;21.10;88.88
59588;BME280;45412;54.472;18.464;2022-07-22T06:37:09;99965.61;;;21.12;87.71
59588;BME280;45412;54.472;18.464;2022-07-22T06:39:57;99969.06;;;21.10;86.65
59588;BME280;45412;54.472;18.464;2022-07-22T06:43:09;99970.89;;;21.10;85.21
59588;BME280;45412;54.472;18.464;2022-07-22T06:46:18;99973.55;;;21.10;85.13
59588;BME280;45412;54.472;18.464;2022-07-22T06:49:11;99967.65;;;21.19;84.92
59588;BME280;45412;54.472;18.464;2022-07-22T06:52:02;99967.57;;;21.34;85.09
59588;BME280;45412;54.472;18.464;2022-07-22T06:54:51;99962.95;;;21.43;84.87
59588;BME280;45412;54.472;18.464;2022-07-22T06:57:40;99965.45;;;21.39;84.91
59588;BME280;45412;54.472;18.464;2022-07-22T07:00:29;99967.26;;;21.25;85.04
59588;BME280;45412;54.472;18.464;2022-07-22T07:03:37;99983.66;;;21.13;85.98
59588;BME280;45412;54.472;18.464;2022-07-22T07:06:27;99987.22;;;21.05;86.85
59588;BME280;45412;54.472;18.464;2022-07-22T07:09:31;99998.27;;;21.00;88.06
59588;BME280;45412;54.472;18.464;2022-07-22T07:12:39;100007.52;;;20.97;89.15
59588;BME280;45412;54.472;18.464;2022-07-22T07:15:39;99998.73;;;20.96;89.41
59588;BME280;45412;54.472;18.464;2022-07-22T07:18:28;99996.05;;;21.02;90.05
59588;BME280;45412;54.472;18.464;2022-07-22T07:21:17;99989.02;;;21.06;89.96
59588;BME280;45412;54.472;18.464;2022-07-22T07:24:06;99991.79;;;21.12;89.80
59588;BME280;45412;54.472;18.464;2022-07-22T07:26:55;99997.65;;;21.14;89.39
59588;BME280;45412;54.472;18.464;2022-07-22T07:29:44;100004.81;;;21.07;88.62
59588;BME280;45412;54.472;18.464;2022-07-22T07:32:33;100005.16;;;21.01;88.10
59588;BME280;45412;54.472;18.464;2022-07-22T07:35:22;100004.58;;;20.97;88.05
59588;BME280;45412;54.472;18.464;2022-07-22T07:38:17;100029.18;;;20.89;88.72
59588;BME280;45412;54.472;18.464;2022-07-22T07:41:08;100043.61;;;20.77;89.82
59588;BME280;45412;54.472;18.464;2022-07-22T07:43:58;100046.05;;;20.71;89.95
59588;BME280;45412;54.472;18.464;2022-07-22T07:46:48;100049.86;;;20.71;90.34
59588;BME280;45412;54.472;18.464;2022-07-22T07:49:36;100049.11;;;20.71;90.64
59588;BME280;45412;54.472;18.464;2022-07-22T07:52:24;100041.36;;;20.70;90.64
59588;BME280;45412;54.472;18.464;2022-07-22T07:55:13;100035.82;;;20.73;90.98
59588;BME280;45412;54.472;18.464;2022-07-22T07:58:03;100037.42;;;20.77;91.02
59588;BME280;45412;54.472;18.464;2022-07-22T08:00:52;100031.83;;;20.79;90.43
59588;BME280;45412;54.472;18.464;2022-07-22T08:03:40;100029.13;;;20.91;90.63
59588;BME280;45412;54.472;18.464;2022-07-22T08:06:30;100020.69;;;21.05;89.67
59588;BME280;45412;54.472;18.464;2022-07-22T08:09:18;100015.81;;;21.19;89.09
59588;BME280;45412;54.472;18.464;2022-07-22T08:12:06;100014.59;;;21.33;89.04
59588;BME280;45412;54.472;18.464;2022-07-22T08:15:21;100011.45;;;21.38;87.72
59588;BME280;45412;54.472;18.464;2022-07-22T08:18:13;100012.56;;;21.33;87.91
59588;BME280;45412;54.472;18.464;2022-07-22T08:21:01;100013.54;;;21.31;88.58
59588;BME280;45412;54.472;18.464;2022-07-22T08:24:01;100008.55;;;21.28;88.89
59588;BME280;45412;54.472;18.464;2022-07-22T08:26:50;100005.34;;;21.35;88.91
59588;BME280;45412;54.472;18.464;2022-07-22T08:29:39;99999.83;;;21.49;88.35
59588;BME280;45412;54.472;18.464;2022-07-22T08:32:28;99995.77;;;21.70;88.03
59588;BME280;45412;54.472;18.464;2022-07-22T08:35:16;99993.29;;;21.99;86.72
59588;BME280;45412;54.472;18.464;2022-07-22T08:38:04;99976.65;;;22.39;85.01
59588;BME280;45412;54.472;18.464;2022-07-22T08:40:56;99964.66;;;22.79;82.64
59588;BME280;45412;54.472;18.464;2022-07-22T08:43:52;99960.42;;;23.28;80.31
59588;BME280;45412;54.472;18.464;2022-07-22T08:46:44;99950.25;;;23.57;78.55
59588;BME280;45412;54.472;18.464;2022-07-22T08:49:40;99944.09;;;23.89;76.43
59588;BME280;45412;54.472;18.464;2022-07-22T08:52:41;99930.53;;;24.43;75.33
59588;BME280;45412;54.472;18.464;2022-07-22T08:55:29;99917.04;;;26.43;71.89
59588;BME280;45412;54.472;18.464;2022-07-22T08:58:17;99915.64;;;28.21;63.80
59588;BME280;45412;54.472;18.464;2022-07-22T09:03:56;99910.46;;;31.35;54.43
59588;BME280;45412;54.472;18.464;2022-07-22T09:06:49;99913.15;;;31.38;50.70
59588;BME280;45412;54.472;18.464;2022-07-22T09:09:38;99905.04;;;31.48;50.98
59588;BME280;45412;54.472;18.464;2022-07-22T09:13:09;99910.80;;;32.98;46.34
59588;BME280;45412;54.472;18.464;2022-07-22T09:16:47;99910.09;;;33.93;43.74
59588;BME280;45412;54.472;18.464;2022-07-22T09:20:00;99912.02;;;34.71;40.36
59588;BME280;45412;54.472;18.464;2022-07-22T09:22:54;99909.70;;;34.96;38.56
59588;BME280;45412;54.472;18.464;2022-07-22T09:25:46;99921.83;;;34.93;38.61
59588;BME280;45412;54.472;18.464;2022-07-22T09:28:56;99929.18;;;34.65;37.52
59588;BME280;45412;54.472;18.464;2022-07-22T09:31:51;99929.27;;;34.96;37.12
59588;BME280;45412;54.472;18.464;2022-07-22T09:35:05;99932.38;;;35.47;36.68
59588;BME280;45412;54.472;18.464;2022-07-22T09:38:11;99932.71;;;36.09;35.01
59588;BME280;45412;54.472;18.464;2022-07-22T09:41:01;99931.11;;;36.44;32.37
59588;BME280;45412;54.472;18.464;2022-07-22T09:43:49;99940.95;;;36.57;31.65
59588;BME280;45412;54.472;18.464;2022-07-22T09:46:45;99941.90;;;37.00;31.44
59588;BME280;45412;54.472;18.464;2022-07-22T09:49:44;99939.69;;;37.38;30.77
59588;BME280;45412;54.472;18.464;2022-07-22T09:53:05;99940.98;;;37.44;31.04
59588;BME280;45412;54.472;18.464;2022-07-22T09:56:01;99939.92;;;37.65;31.26
59588;BME280;45412;54.472;18.464;2022-07-22T09:58:50;99940.30;;;37.41;29.93
59588;BME280;45412;54.472;18.464;2022-07-22T10:01:43;99938.52;;;37.07;31.38
59588;BME280;45412;54.472;18.464;2022-07-22T10:04:35;99939.36;;;37.44;30.09
59588;BME280;45412;54.472;18.464;2022-07-22T10:07:26;99942.37;;;37.39;30.59
59588;BME280;45412;54.472;18.464;2022-07-22T10:10:24;99939.83;;;38.05;28.86
59588;BME280;45412;54.472;18.464;2022-07-22T10:13:13;99947.17;;;37.19;29.58
59588;BME280;45412;54.472;18.464;2022-07-22T10:16:01;99948.98;;;36.37;31.11
59588;BME280;45412;54.472;18.464;2022-07-22T10:18:50;99948.83;;;35.59;32.79
59588;BME280;45412;54.472;18.464;2022-07-22T10:21:40;99952.23;;;34.79;34.04
59588;BME280;45412;54.472;18.464;2022-07-22T10:24:29;99950.16;;;33.87;35.07
59588;BME280;45412;54.472;18.464;2022-07-22T10:27:45;99950.02;;;33.24;37.08
59588;BME280;45412;54.472;18.464;2022-07-22T10:30:37;99943.73;;;33.70;36.19
59588;BME280;45412;54.472;18.464;2022-07-22T10:33:32;99940.01;;;34.36;35.24
59588;BME280;45412;54.472;18.464;2022-07-22T10:36:36;99940.84;;;35.30;33.44
59588;BME280;45412;54.472;18.464;2022-07-22T10:39:25;99933.75;;;35.82;32.10
59588;BME280;45412;54.472;18.464;2022-07-22T10:42:13;99932.79;;;36.23;31.59
59588;BME280;45412;54.472;18.464;2022-07-22T10:45:03;99928.35;;;35.72;32.23
59588;BME280;45412;54.472;18.464;2022-07-22T10:47:53;99925.24;;;35.80;32.39
59588;BME280;45412;54.472;18.464;2022-07-22T10:50:54;99926.52;;;36.76;31.81
59588;BME280;45412;54.472;18.464;2022-07-22T10:53:59;99920.41;;;37.91;29.90
59588;BME280;45412;54.472;18.464;2022-07-22T10:56:51;99917.17;;;38.67;28.58
59588;BME280;45412;54.472;18.464;2022-07-22T10:59:39;99918.30;;;39.24;27.45
59588;BME280;45412;54.472;18.464;2022-07-22T11:02:27;99917.47;;;39.47;26.35
59588;BME280;45412;54.472;18.464;2022-07-22T11:05:34;99916.74;;;38.74;27.50
59588;BME280;45412;54.472;18.464;2022-07-22T11:08:22;99923.33;;;37.39;28.69
59588;BME280;45412;54.472;18.464;2022-07-22T11:11:10;99921.86;;;36.35;30.22
59588;BME280;45412;54.472;18.464;2022-07-22T11:14:00;99926.34;;;35.37;32.24
59588;BME280;45412;54.472;18.464;2022-07-22T11:16:50;99925.55;;;34.46;34.55
59588;BME280;45412;54.472;18.464;2022-07-22T11:19:39;99922.91;;;33.73;35.50
59588;BME280;45412;54.472;18.464;2022-07-22T11:22:27;99926.44;;;32.93;37.49
59588;BME280;45412;54.472;18.464;2022-07-22T11:25:16;99927.09;;;32.02;38.63
59588;BME280;45412;54.472;18.464;2022-07-22T11:28:05;99926.91;;;31.30;40.17
59588;BME280;45412;54.472;18.464;2022-07-22T11:31:08;99922.52;;;30.58;42.11
59588;BME280;45412;54.472;18.464;2022-07-22T11:34:12;99918.61;;;29.87;43.89
59588;BME280;45412;54.472;18.464;2022-07-22T11:37:01;99917.96;;;29.26;45.34
59588;BME280;45412;54.472;18.464;2022-07-22T11:39:50;99933.98;;;28.74;48.45
59588;BME280;45412;54.472;18.464;2022-07-22T11:42:39;99934.52;;;28.19;51.08
59588;BME280;45412;54.472;18.464;2022-07-22T11:45:27;99931.62;;;27.76;55.33
59588;BME280;45412;54.472;18.464;2022-07-22T11:48:19;99924.66;;;27.49;57.97
59588;BME280;45412;54.472;18.464;2022-07-22T11:51:09;99925.34;;;27.56;57.55
59588;BME280;45412;54.472;18.464;2022-07-22T11:54:08;99927.11;;;27.92;59.16
59588;BME280;45412;54.472;18.464;2022-07-22T11:56:56;99920.64;;;28.10;56.54
59588;BME280;45412;54.472;18.464;2022-07-22T11:59:45;99914.61;;;28.33;56.30
59588;BME280;45412;54.472;18.464;2022-07-22T12:02:33;99914.77;;;28.54;56.35
59588;BME280;45412;54.472;18.464;2022-07-22T12:05:24;99919.35;;;28.64;57.53
59588;BME280;45412;54.472;18.464;2022-07-22T12:08:20;99919.02;;;28.57;56.70
59588;BME280;45412;54.472;18.464;2022-07-22T12:11:11;99916.29;;;28.42;54.76
59588;BME280;45412;54.472;18.464;2022-07-22T12:14:15;99910.38;;;28.44;53.13
59588;BME280;45412;54.472;18.464;2022-07-22T12:17:09;99916.34;;;28.78;53.30
59588;BME280;45412;54.472;18.464;2022-07-22T12:20:11;99906.98;;;28.93;52.43
59588;BME280;45412;54.472;18.464;2022-07-22T12:23:00;99915.27;;;28.86;54.14
59588;BME280;45412;54.472;18.464;2022-07-22T12:25:58;99911.12;;;28.54;55.13
59588;BME280;45412;54.472;18.464;2022-07-22T12:28:46;99907.02;;;28.22;56.42
59588;BME280;45412;54.472;18.464;2022-07-22T12:31:53;99909.11;;;28.00;57.56
59588;BME280;45412;54.472;18.464;2022-07-22T12:34:45;99903.80;;;27.70;58.61
59588;BME280;45412;54.472;18.464;2022-07-22T12:37:41;99907.08;;;27.50;59.40
59588;BME280;45412;54.472;18.464;2022-07-22T12:40:30;99905.54;;;27.31;60.03
59588;BME280;45412;54.472;18.464;2022-07-22T12:43:26;99901.55;;;27.20;61.66
59588;BME280;45412;54.472;18.464;2022-07-22T12:46:14;99904.80;;;27.07;62.90
59588;BME280;45412;54.472;18.464;2022-07-22T12:49:04;99909.48;;;27.09;63.68
59588;BME280;45412;54.472;18.464;2022-07-22T12:52:13;99906.00;;;27.25;63.45
59588;BME280;45412;54.472;18.464;2022-07-22T12:55:01;99907.66;;;27.63;61.61
59588;BME280;45412;54.472;18.464;2022-07-22T12:57:49;99903.23;;;27.76;59.07
59588;BME280;45412;54.472;18.464;2022-07-22T13:00:42;99906.27;;;27.79;58.11
59588;BME280;45412;54.472;18.464;2022-07-22T13:03:31;99907.52;;;27.84;58.56
59588;BME280;45412;54.472;18.464;2022-07-22T13:06:20;99909.83;;;27.87;58.39
59588;BME280;45412;54.472;18.464;2022-07-22T13:09:08;99911.06;;;27.88;59.79
59588;BME280;45412;54.472;18.464;2022-07-22T13:12:06;99915.38;;;27.74;61.69
59588;BME280;45412;54.472;18.464;2022-07-22T13:14:58;99909.69;;;27.65;62.38
59588;BME280;45412;54.472;18.464;2022-07-22T13:17:47;99904.66;;;27.56;62.22
59588;BME280;45412;54.472;18.464;2022-07-22T13:20:35;99903.86;;;27.46;62.34
59588;BME280;45412;54.472;18.464;2022-07-22T13:23:23;99904.33;;;27.38;62.47
59588;BME280;45412;54.472;18.464;2022-07-22T13:26:12;99902.95;;;27.40;62.40
59588;BME280;45412;54.472;18.464;2022-07-22T13:29:00;99902.85;;;27.33;62.09
59588;BME280;45412;54.472;18.464;2022-07-22T13:31:49;99903.63;;;27.23;62.11
59588;BME280;45412;54.472;18.464;2022-07-22T13:34:57;99902.86;;;27.08;63.06
59588;BME280;45412;54.472;18.464;2022-07-22T13:37:45;99904.41;;;26.87;63.45
59588;BME280;45412;54.472;18.464;2022-07-22T13:40:33;99907.60;;;26.65;64.03
59588;BME280;45412;54.472;18.464;2022-07-22T13:43:23;99914.08;;;26.45;64.28
59588;BME280;45412;54.472;18.464;2022-07-22T13:46:12;99920.56;;;26.16;64.57
59588;BME280;45412;54.472;18.464;2022-07-22T13:49:01;99925.77;;;25.80;65.22
59588;BME280;45412;54.472;18.464;2022-07-22T13:51:49;99926.20;;;25.55;65.65
59588;BME280;45412;54.472;18.464;2022-07-22T13:54:39;99925.46;;;25.33;66.76
59588;BME280;45412;54.472;18.464;2022-07-22T13:57:27;99926.68;;;25.18;67.69
59588;BME280;45412;54.472;18.464;2022-07-22T14:00:15;99936.38;;;25.04;67.95
59588;BME280;45412;54.472;18.464;2022-07-22T14:03:05;99938.22;;;24.91;68.32
59588;BME280;45412;54.472;18.464;2022-07-22T14:05:53;99932.66;;;24.79;68.48
59588;BME280;45412;54.472;18.464;2022-07-22T14:08:41;99932.63;;;24.75;69.54
59588;BME280;45412;54.472;18.464;2022-07-22T14:11:29;99936.16;;;24.80;69.79
59588;BME280;45412;54.472;18.464;2022-07-22T14:14:18;99930.77;;;24.96;69.61
59588;BME280;45412;54.472;18.464;2022-07-22T14:17:06;99929.63;;;25.14;68.96
59588;BME280;45412;54.472;18.464;2022-07-22T14:19:54;99926.41;;;25.21;68.39
59588;BME280;45412;54.472;18.464;2022-07-22T14:22:47;99915.33;;;25.31;68.15
59588;BME280;45412;54.472;18.464;2022-07-22T14:25:37;99916.91;;;25.37;67.48
59588;BME280;45412;54.472;18.464;2022-07-22T14:28:25;99914.23;;;25.40;66.39
59588;BME280;45412;54.472;18.464;2022-07-22T14:31:23;99916.22;;;25.39;66.24
59588;BME280;45412;54.472;18.464;2022-07-22T14:34:11;99916.15;;;25.42;65.78
59588;BME280;45412;54.472;18.464;2022-07-22T14:36:59;99914.25;;;25.45;65.17
59588;BME280;45412;54.472;18.464;2022-07-22T14:39:53;99916.02;;;25.45;64.50
59588;BME280;45412;54.472;18.464;2022-07-22T14:42:41;99914.53;;;25.52;64.44
59588;BME280;45412;54.472;18.464;2022-07-22T14:45:29;99911.45;;;25.60;64.02
59588;BME280;45412;54.472;18.464;2022-07-22T14:48:18;99909.34;;;25.57;63.01
59588;BME280;45412;54.472;18.464;2022-07-22T14:51:06;99907.89;;;25.54;63.10
59588;BME280;45412;54.472;18.464;2022-07-22T14:53:54;99905.70;;;25.62;63.24
59588;BME280;45412;54.472;18.464;2022-07-22T14:56:43;99904.31;;;25.68;62.04
59588;BME280;45412;54.472;18.464;2022-07-22T14:59:31;99899.51;;;25.74;61.85